WZZ539 EDLW-LZIB
Flight info
| Callsign | WZZ539 |
|---|---|
| Flight time | 1h 10m |
| Altitude | 37000 |
| Route | GMH8Q/06 GMH Q603 TESGA DCT ESATI DCT OSBIT L984 OKG DCT ODNEM/N0332F130 A4 BERVA |
| Aircraft | A21N/M-SDE3FGHIRWY/LB1 |
Departure
| Time | 2026-04-28 18:42 |
|---|---|
| Airport | Dortmund Airport (EDLW) |
Arrival
| Time | 2026-04-28 19:53 |
|---|---|
| Airport | M. R. Štefánik Airport (LZIB) |
| Time | Latitude | Longitude | Altitude | Speed | Heading |
|---|---|---|---|---|---|
| 2026-04-28 18:07 | 51.51476 | 7.61120 | 428 ft | 0 kts | 143° |
| 2026-04-28 18:33 | 51.51481 | 7.61114 | 428 ft | 0 kts | 143° |
| 2026-04-28 18:33 | 51.51490 | 7.61101 | 428 ft | 2 kts | 128° |
| 2026-04-28 18:33 | 51.51498 | 7.61081 | 428 ft | 2 kts | 111° |
| 2026-04-28 18:34 | 51.51501 | 7.61058 | 428 ft | 2 kts | 93° |
| 2026-04-28 18:34 | 51.51500 | 7.61034 | 428 ft | 2 kts | 76° |
| 2026-04-28 18:34 | 51.51496 | 7.61017 | 428 ft | 0 kts | 63° |
| 2026-04-28 18:34 | 51.51493 | 7.61008 | 428 ft | 0 kts | 60° |
| 2026-04-28 18:37 | 51.51496 | 7.61015 | 428 ft | 1 kts | 60° |
| 2026-04-28 18:37 | 51.51508 | 7.61046 | 428 ft | 4 kts | 54° |
| 2026-04-28 18:37 | 51.51543 | 7.61065 | 427 ft | 6 kts | 351° |
| 2026-04-28 18:37 | 51.51568 | 7.61005 | 427 ft | 7 kts | 265° |
| 2026-04-28 18:38 | 51.51547 | 7.60931 | 428 ft | 7 kts | 241° |
| 2026-04-28 18:38 | 51.51524 | 7.60864 | 429 ft | 6 kts | 240° |
| 2026-04-28 18:38 | 51.51504 | 7.60808 | 430 ft | 5 kts | 240° |
| 2026-04-28 18:38 | 51.51485 | 7.60754 | 431 ft | 5 kts | 240° |
| 2026-04-28 18:39 | 51.51480 | 7.60741 | 431 ft | 0 kts | 240° |
| 2026-04-28 18:39 | 51.51480 | 7.60740 | 431 ft | 0 kts | 240° |
| 2026-04-28 18:39 | 51.51474 | 7.60722 | 431 ft | 3 kts | 240° |
| 2026-04-28 18:40 | 51.51459 | 7.60680 | 432 ft | 5 kts | 241° |
| 2026-04-28 18:40 | 51.51432 | 7.60600 | 434 ft | 10 kts | 241° |
| 2026-04-28 18:40 | 51.51389 | 7.60480 | 437 ft | 14 kts | 240° |
| 2026-04-28 18:40 | 51.51361 | 7.60337 | 440 ft | 13 kts | 288° |
| 2026-04-28 18:41 | 51.51431 | 7.60245 | 439 ft | 14 kts | 332° |
| 2026-04-28 18:41 | 51.51483 | 7.60228 | 438 ft | 7 kts | 44° |
| 2026-04-28 18:41 | 51.51490 | 7.60244 | 437 ft | 1 kts | 62° |
| 2026-04-28 18:41 | 51.51614 | 7.60602 | 429 ft | 77 kts | 61° |
| 2026-04-28 18:42 | 51.52002 | 7.61707 | 416 ft | 143 kts | 60° |
| 2026-04-28 18:42 | 51.52484 | 7.63099 | 1062 ft | 139 kts | 63° |
| 2026-04-28 18:42 | 51.52931 | 7.64430 | 1747 ft | 138 kts | 65° |
| 2026-04-28 18:42 | 51.53414 | 7.65818 | 2089 ft | 152 kts | 64° |
| 2026-04-28 18:43 | 51.53957 | 7.67364 | 2451 ft | 168 kts | 64° |
| 2026-04-28 18:43 | 51.54550 | 7.69060 | 2837 ft | 184 kts | 63° |
| 2026-04-28 18:43 | 51.55221 | 7.70938 | 3183 ft | 204 kts | 63° |
| 2026-04-28 18:43 | 51.55931 | 7.73010 | 3735 ft | 215 kts | 69° |
| 2026-04-28 18:44 | 51.56132 | 7.75300 | 4491 ft | 217 kts | 97° |
| 2026-04-28 18:44 | 51.54298 | 7.79162 | 5852 ft | 241 kts | 150° |
| 2026-04-28 18:44 | 51.52811 | 7.80335 | 6540 ft | 242 kts | 141° |
| 2026-04-28 18:45 | 51.51705 | 7.82334 | 7251 ft | 240 kts | 119° |
| 2026-04-28 18:45 | 51.50906 | 7.84643 | 7961 ft | 242 kts | 115° |
| 2026-04-28 18:45 | 51.50089 | 7.87005 | 8631 ft | 247 kts | 118° |
| 2026-04-28 18:45 | 51.49154 | 7.89357 | 9296 ft | 251 kts | 122° |
| 2026-04-28 18:46 | 51.48127 | 7.91622 | 9955 ft | 255 kts | 124° |
| 2026-04-28 18:46 | 51.47102 | 7.93916 | 10592 ft | 258 kts | 118° |
| 2026-04-28 18:46 | 51.46269 | 7.96503 | 11021 ft | 268 kts | 112° |
| 2026-04-28 18:46 | 51.45492 | 7.99284 | 11334 ft | 284 kts | 112° |
| 2026-04-28 18:47 | 51.44656 | 8.02257 | 11635 ft | 300 kts | 112° |
| 2026-04-28 18:47 | 51.43758 | 8.05360 | 11960 ft | 314 kts | 113° |
| 2026-04-28 18:47 | 51.42809 | 8.08562 | 12494 ft | 321 kts | 114° |
| 2026-04-28 18:47 | 51.41838 | 8.11797 | 13115 ft | 324 kts | 114° |
| 2026-04-28 18:48 | 51.40863 | 8.15036 | 13701 ft | 328 kts | 114° |
| 2026-04-28 18:48 | 51.39882 | 8.18325 | 14287 ft | 331 kts | 113° |
| 2026-04-28 18:48 | 51.38902 | 8.21703 | 14846 ft | 335 kts | 113° |
| 2026-04-28 18:48 | 51.37926 | 8.25079 | 15403 ft | 339 kts | 112° |
| 2026-04-28 18:49 | 51.36932 | 8.28511 | 15957 ft | 342 kts | 113° |
| 2026-04-28 18:49 | 51.36269 | 8.30795 | 16318 ft | 344 kts | 112° |
| 2026-04-28 18:49 | 51.34911 | 8.35456 | 17009 ft | 349 kts | 112° |
| 2026-04-28 18:49 | 51.33886 | 8.38965 | 17523 ft | 352 kts | 113° |
| 2026-04-28 18:50 | 51.32857 | 8.42480 | 18030 ft | 355 kts | 113° |
| 2026-04-28 18:50 | 51.31800 | 8.46082 | 18516 ft | 358 kts | 113° |
| 2026-04-28 18:50 | 51.30745 | 8.49670 | 19005 ft | 361 kts | 113° |
| 2026-04-28 18:50 | 51.29678 | 8.53299 | 19460 ft | 365 kts | 113° |
| 2026-04-28 18:51 | 51.28596 | 8.56973 | 19911 ft | 368 kts | 113° |
| 2026-04-28 18:51 | 51.27498 | 8.60697 | 20355 ft | 372 kts | 113° |
| 2026-04-28 18:51 | 51.26408 | 8.64388 | 20795 ft | 374 kts | 113° |
| 2026-04-28 18:51 | 51.25293 | 8.68161 | 21226 ft | 377 kts | 114° |
| 2026-04-28 18:52 | 51.24159 | 8.71990 | 21642 ft | 381 kts | 114° |
| 2026-04-28 18:52 | 51.23024 | 8.75817 | 22054 ft | 384 kts | 114° |
| 2026-04-28 18:52 | 51.21876 | 8.79677 | 22454 ft | 387 kts | 114° |
| 2026-04-28 18:52 | 51.20731 | 8.83529 | 22840 ft | 390 kts | 114° |
| 2026-04-28 18:53 | 51.19566 | 8.87433 | 23225 ft | 393 kts | 114° |
| 2026-04-28 18:53 | 51.18388 | 8.91378 | 23597 ft | 396 kts | 114° |
| 2026-04-28 18:53 | 51.17204 | 8.95340 | 23987 ft | 398 kts | 114° |
| 2026-04-28 18:53 | 51.16006 | 8.99340 | 24361 ft | 401 kts | 114° |
| 2026-04-28 18:54 | 51.14798 | 9.03368 | 24714 ft | 404 kts | 114° |
| 2026-04-28 18:54 | 51.13599 | 9.07362 | 25049 ft | 407 kts | 114° |
| 2026-04-28 18:54 | 51.12363 | 9.11471 | 25402 ft | 409 kts | 115° |
| 2026-04-28 18:54 | 51.11132 | 9.15555 | 25765 ft | 411 kts | 115° |
| 2026-04-28 18:55 | 51.09901 | 9.19634 | 26110 ft | 413 kts | 115° |
| 2026-04-28 18:55 | 51.09057 | 9.22423 | 26330 ft | 415 kts | 115° |
| 2026-04-28 18:55 | 51.07380 | 9.27956 | 26776 ft | 418 kts | 115° |
| 2026-04-28 18:55 | 51.06113 | 9.32124 | 27097 ft | 420 kts | 115° |
| 2026-04-28 18:56 | 51.04836 | 9.36317 | 27392 ft | 423 kts | 115° |
| 2026-04-28 18:56 | 51.03534 | 9.40585 | 27685 ft | 425 kts | 115° |
| 2026-04-28 18:56 | 51.02251 | 9.44786 | 27967 ft | 428 kts | 115° |
| 2026-04-28 18:56 | 51.00957 | 9.49018 | 28261 ft | 430 kts | 115° |
| 2026-04-28 18:57 | 50.99627 | 9.53363 | 28557 ft | 432 kts | 115° |
| 2026-04-28 18:57 | 50.98312 | 9.57649 | 28843 ft | 435 kts | 115° |
| 2026-04-28 18:57 | 50.96971 | 9.62010 | 29136 ft | 437 kts | 115° |
| 2026-04-28 18:57 | 50.95629 | 9.66367 | 29403 ft | 439 kts | 116° |
| 2026-04-28 18:58 | 50.94266 | 9.70788 | 29660 ft | 442 kts | 116° |
| 2026-04-28 18:58 | 50.92919 | 9.75147 | 29928 ft | 444 kts | 116° |
| 2026-04-28 18:58 | 50.91548 | 9.79575 | 30184 ft | 447 kts | 116° |
| 2026-04-28 18:58 | 50.90196 | 9.83941 | 30411 ft | 449 kts | 116° |
| 2026-04-28 18:59 | 50.88802 | 9.88436 | 30615 ft | 452 kts | 116° |
| 2026-04-28 18:59 | 50.87413 | 9.92903 | 30836 ft | 455 kts | 116° |
| 2026-04-28 18:59 | 50.85997 | 9.97438 | 31086 ft | 456 kts | 116° |
| 2026-04-28 18:59 | 50.84600 | 10.01906 | 31320 ft | 458 kts | 116° |
| 2026-04-28 19:00 | 50.83164 | 10.06492 | 31514 ft | 460 kts | 116° |
| 2026-04-28 19:00 | 50.81749 | 10.10997 | 31707 ft | 463 kts | 116° |
| 2026-04-28 19:00 | 50.80310 | 10.15574 | 32025 ft | 461 kts | 116° |
| 2026-04-28 19:00 | 50.78900 | 10.20056 | 32643 ft | 451 kts | 116° |
| 2026-04-28 19:01 | 50.77507 | 10.24473 | 33278 ft | 441 kts | 116° |
| 2026-04-28 19:01 | 50.76157 | 10.28751 | 33653 ft | 438 kts | 116° |
| 2026-04-28 19:01 | 50.74800 | 10.33050 | 33895 ft | 439 kts | 116° |
| 2026-04-28 19:01 | 50.73442 | 10.37337 | 34134 ft | 440 kts | 116° |
| 2026-04-28 19:02 | 50.72055 | 10.41703 | 34376 ft | 440 kts | 116° |
| 2026-04-28 19:02 | 50.70698 | 10.45973 | 34565 ft | 442 kts | 116° |
| 2026-04-28 19:02 | 50.67899 | 10.54752 | 34742 ft | 451 kts | 116° |
| 2026-04-28 19:03 | 50.65046 | 10.63669 | 34910 ft | 460 kts | 116° |
| 2026-04-28 19:03 | 50.62142 | 10.72704 | 35065 ft | 468 kts | 117° |
| 2026-04-28 19:04 | 50.59175 | 10.81899 | 35236 ft | 475 kts | 117° |
| 2026-04-28 19:04 | 50.57685 | 10.86509 | 35428 ft | 474 kts | 117° |
| 2026-04-28 19:04 | 50.56184 | 10.91144 | 35624 ft | 474 kts | 117° |
| 2026-04-28 19:05 | 50.54686 | 10.95759 | 35792 ft | 472 kts | 116° |
| 2026-04-28 19:05 | 50.53196 | 11.00344 | 35980 ft | 471 kts | 116° |
| 2026-04-28 19:05 | 50.51698 | 11.04943 | 36156 ft | 470 kts | 116° |
| 2026-04-28 19:05 | 50.50231 | 11.09440 | 36368 ft | 469 kts | 116° |
| 2026-04-28 19:06 | 50.48738 | 11.14008 | 36499 ft | 470 kts | 117° |
| 2026-04-28 19:06 | 50.47734 | 11.17070 | 36590 ft | 471 kts | 117° |
| 2026-04-28 19:06 | 50.45733 | 11.23172 | 36769 ft | 473 kts | 116° |
| 2026-04-28 19:06 | 50.44237 | 11.27723 | 36889 ft | 474 kts | 116° |
| 2026-04-28 19:07 | 50.42731 | 11.32302 | 37016 ft | 476 kts | 116° |
| 2026-04-28 19:07 | 50.41218 | 11.36889 | 37171 ft | 476 kts | 116° |
| 2026-04-28 19:07 | 50.38170 | 11.46103 | 37191 ft | 480 kts | 116° |
| 2026-04-28 19:08 | 50.35072 | 11.55423 | 37187 ft | 481 kts | 116° |
| 2026-04-28 19:08 | 50.31985 | 11.64693 | 37198 ft | 482 kts | 116° |
| 2026-04-28 19:09 | 50.28882 | 11.73984 | 37199 ft | 482 kts | 117° |
| 2026-04-28 19:09 | 50.25762 | 11.83267 | 37189 ft | 482 kts | 117° |
| 2026-04-28 19:10 | 50.22641 | 11.92513 | 37195 ft | 483 kts | 117° |
| 2026-04-28 19:10 | 50.19522 | 12.01747 | 37190 ft | 483 kts | 117° |
| 2026-04-28 19:11 | 50.16375 | 12.11033 | 37187 ft | 482 kts | 117° |
| 2026-04-28 19:11 | 50.13263 | 12.20226 | 37179 ft | 483 kts | 117° |
| 2026-04-28 19:12 | 50.10178 | 12.29523 | 37174 ft | 483 kts | 117° |
| 2026-04-28 19:12 | 50.07122 | 12.38853 | 37175 ft | 484 kts | 114° |
| 2026-04-28 19:13 | 50.04602 | 12.48586 | 37174 ft | 483 kts | 108° |
| 2026-04-28 19:13 | 50.02377 | 12.58346 | 37164 ft | 484 kts | 108° |
| 2026-04-28 19:14 | 50.00111 | 12.68243 | 37178 ft | 484 kts | 109° |
| 2026-04-28 19:14 | 49.97842 | 12.78066 | 37180 ft | 484 kts | 109° |
| 2026-04-28 19:15 | 49.95553 | 12.87913 | 37172 ft | 484 kts | 109° |
| 2026-04-28 19:15 | 49.93649 | 12.96067 | 37178 ft | 484 kts | 109° |
| 2026-04-28 19:16 | 49.90963 | 13.07497 | 37172 ft | 484 kts | 109° |
| 2026-04-28 19:16 | 49.88645 | 13.17329 | 37176 ft | 485 kts | 109° |
| 2026-04-28 19:17 | 49.86323 | 13.27132 | 37182 ft | 485 kts | 109° |
| 2026-04-28 19:17 | 49.84009 | 13.36856 | 37184 ft | 485 kts | 109° |
| 2026-04-28 19:18 | 49.81668 | 13.46645 | 37198 ft | 485 kts | 109° |
| 2026-04-28 19:18 | 49.79326 | 13.56404 | 37201 ft | 486 kts | 109° |
| 2026-04-28 19:19 | 49.76967 | 13.66178 | 37188 ft | 486 kts | 109° |
| 2026-04-28 19:19 | 49.74588 | 13.76000 | 37190 ft | 487 kts | 109° |
| 2026-04-28 19:20 | 49.72228 | 13.85698 | 37199 ft | 487 kts | 109° |
| 2026-04-28 19:20 | 49.69833 | 13.95490 | 37197 ft | 487 kts | 109° |
| 2026-04-28 19:21 | 49.67440 | 14.05243 | 37199 ft | 487 kts | 109° |
| 2026-04-28 19:21 | 49.65034 | 14.14992 | 37198 ft | 488 kts | 109° |
| 2026-04-28 19:22 | 49.63016 | 14.23150 | 37191 ft | 488 kts | 110° |
| 2026-04-28 19:22 | 49.60193 | 14.34504 | 37210 ft | 490 kts | 110° |
| 2026-04-28 19:23 | 49.57744 | 14.44290 | 37183 ft | 490 kts | 109° |
| 2026-04-28 19:23 | 49.55302 | 14.54030 | 37179 ft | 490 kts | 109° |
| 2026-04-28 19:24 | 49.52840 | 14.63798 | 37175 ft | 491 kts | 110° |
| 2026-04-28 19:24 | 49.50362 | 14.73595 | 36976 ft | 493 kts | 110° |
| 2026-04-28 19:25 | 49.49124 | 14.78459 | 36713 ft | 493 kts | 110° |
| 2026-04-28 19:25 | 49.47881 | 14.83347 | 36471 ft | 494 kts | 110° |
| 2026-04-28 19:25 | 49.46618 | 14.88291 | 36253 ft | 494 kts | 110° |
| 2026-04-28 19:25 | 49.45365 | 14.93193 | 36083 ft | 493 kts | 110° |
| 2026-04-28 19:26 | 49.44115 | 14.98070 | 35910 ft | 492 kts | 110° |
| 2026-04-28 19:26 | 49.42874 | 15.02903 | 35751 ft | 492 kts | 110° |
| 2026-04-28 19:26 | 49.41615 | 15.07803 | 35583 ft | 492 kts | 110° |
| 2026-04-28 19:26 | 49.40366 | 15.12656 | 35399 ft | 491 kts | 110° |
| 2026-04-28 19:27 | 49.39115 | 15.17494 | 35202 ft | 490 kts | 110° |
| 2026-04-28 19:27 | 49.37861 | 15.22335 | 35000 ft | 490 kts | 110° |
| 2026-04-28 19:27 | 49.36612 | 15.27145 | 34793 ft | 490 kts | 110° |
| 2026-04-28 19:27 | 49.35349 | 15.32001 | 34560 ft | 489 kts | 110° |
| 2026-04-28 19:28 | 49.34084 | 15.36860 | 34313 ft | 488 kts | 111° |
| 2026-04-28 19:28 | 49.32835 | 15.41643 | 34070 ft | 487 kts | 110° |
| 2026-04-28 19:28 | 49.31591 | 15.46404 | 33825 ft | 484 kts | 111° |
| 2026-04-28 19:28 | 49.30335 | 15.51192 | 33580 ft | 483 kts | 110° |
| 2026-04-28 19:29 | 49.29085 | 15.55956 | 33330 ft | 482 kts | 111° |
| 2026-04-28 19:29 | 49.28256 | 15.59109 | 33160 ft | 480 kts | 111° |
| 2026-04-28 19:29 | 49.26608 | 15.65358 | 32708 ft | 474 kts | 112° |
| 2026-04-28 19:29 | 49.25380 | 15.70013 | 32208 ft | 472 kts | 112° |
| 2026-04-28 19:30 | 49.24161 | 15.74613 | 31730 ft | 470 kts | 112° |
| 2026-04-28 19:30 | 49.22930 | 15.79239 | 31282 ft | 467 kts | 111° |
| 2026-04-28 19:30 | 49.21714 | 15.83816 | 30845 ft | 463 kts | 112° |
| 2026-04-28 19:30 | 49.20507 | 15.88341 | 30416 ft | 459 kts | 112° |
| 2026-04-28 19:31 | 49.19316 | 15.92800 | 29998 ft | 454 kts | 112° |
| 2026-04-28 19:31 | 49.18125 | 15.97249 | 29570 ft | 450 kts | 112° |
| 2026-04-28 19:31 | 49.16962 | 16.01592 | 29148 ft | 446 kts | 112° |
| 2026-04-28 19:31 | 49.15781 | 16.05986 | 28706 ft | 442 kts | 111° |
| 2026-04-28 19:32 | 49.14630 | 16.10262 | 28293 ft | 438 kts | 111° |
| 2026-04-28 19:32 | 49.13481 | 16.14535 | 27865 ft | 434 kts | 111° |
| 2026-04-28 19:32 | 49.12344 | 16.18743 | 27433 ft | 431 kts | 111° |
| 2026-04-28 19:32 | 49.11211 | 16.22930 | 27022 ft | 427 kts | 111° |
| 2026-04-28 19:33 | 49.10077 | 16.27113 | 26608 ft | 423 kts | 111° |
| 2026-04-28 19:33 | 49.08964 | 16.31209 | 26199 ft | 419 kts | 111° |
| 2026-04-28 19:33 | 49.07859 | 16.35276 | 25793 ft | 415 kts | 111° |
| 2026-04-28 19:33 | 49.06761 | 16.39308 | 25377 ft | 412 kts | 111° |
| 2026-04-28 19:34 | 49.05664 | 16.43332 | 24966 ft | 408 kts | 111° |
| 2026-04-28 19:34 | 49.04589 | 16.47260 | 24579 ft | 404 kts | 111° |
| 2026-04-28 19:34 | 49.03509 | 16.51205 | 24163 ft | 400 kts | 110° |
| 2026-04-28 19:34 | 49.02438 | 16.55113 | 23763 ft | 397 kts | 111° |
| 2026-04-28 19:35 | 49.01382 | 16.58964 | 23369 ft | 393 kts | 111° |
| 2026-04-28 19:35 | 49.00336 | 16.62765 | 22980 ft | 390 kts | 110° |
| 2026-04-28 19:35 | 48.99305 | 16.66507 | 22577 ft | 387 kts | 111° |
| 2026-04-28 19:35 | 48.98262 | 16.70291 | 22147 ft | 384 kts | 111° |
| 2026-04-28 19:36 | 48.97236 | 16.73999 | 21728 ft | 382 kts | 111° |
| 2026-04-28 19:36 | 48.96211 | 16.77702 | 21243 ft | 382 kts | 111° |
| 2026-04-28 19:36 | 48.95176 | 16.81438 | 20480 ft | 389 kts | 111° |
| 2026-04-28 19:36 | 48.94120 | 16.85245 | 19963 ft | 389 kts | 111° |
| 2026-04-28 19:37 | 48.93077 | 16.88991 | 19547 ft | 385 kts | 111° |
| 2026-04-28 19:37 | 48.92391 | 16.91452 | 19177 ft | 386 kts | 111° |
| 2026-04-28 19:37 | 48.90998 | 16.96445 | 18534 ft | 383 kts | 111° |
| 2026-04-28 19:37 | 48.89963 | 17.00149 | 18294 ft | 375 kts | 111° |
| 2026-04-28 19:38 | 48.88959 | 17.03739 | 18030 ft | 367 kts | 111° |
| 2026-04-28 19:38 | 48.87962 | 17.07293 | 17749 ft | 359 kts | 111° |
| 2026-04-28 19:38 | 48.86994 | 17.10741 | 17472 ft | 352 kts | 111° |
| 2026-04-28 19:38 | 48.86034 | 17.14119 | 17105 ft | 349 kts | 114° |
| 2026-04-28 19:39 | 48.84834 | 17.17272 | 16711 ft | 347 kts | 124° |
| 2026-04-28 19:39 | 48.83261 | 17.19971 | 16283 ft | 344 kts | 144° |
| 2026-04-28 19:39 | 48.81166 | 17.21682 | 15878 ft | 339 kts | 158° |
| 2026-04-28 19:39 | 48.79023 | 17.23067 | 15485 ft | 336 kts | 158° |
| 2026-04-28 19:40 | 48.76873 | 17.24442 | 15079 ft | 334 kts | 158° |
| 2026-04-28 19:40 | 48.74749 | 17.25825 | 14665 ft | 333 kts | 158° |
| 2026-04-28 19:40 | 48.72634 | 17.27227 | 14277 ft | 330 kts | 157° |
| 2026-04-28 19:40 | 48.70561 | 17.28617 | 13913 ft | 327 kts | 157° |
| 2026-04-28 19:41 | 48.68496 | 17.30012 | 13523 ft | 325 kts | 156° |
| 2026-04-28 19:41 | 48.66445 | 17.31402 | 13152 ft | 322 kts | 156° |
| 2026-04-28 19:41 | 48.64397 | 17.32789 | 12760 ft | 321 kts | 156° |
| 2026-04-28 19:41 | 48.62392 | 17.34148 | 12369 ft | 319 kts | 156° |
| 2026-04-28 19:42 | 48.60372 | 17.35517 | 11976 ft | 316 kts | 156° |
| 2026-04-28 19:42 | 48.58365 | 17.36877 | 11603 ft | 314 kts | 156° |
| 2026-04-28 19:42 | 48.56398 | 17.38209 | 11222 ft | 312 kts | 156° |
| 2026-04-28 19:42 | 48.55086 | 17.39096 | 10962 ft | 311 kts | 156° |
| 2026-04-28 19:43 | 48.52461 | 17.40870 | 10459 ft | 308 kts | 156° |
| 2026-04-28 19:43 | 48.50520 | 17.42180 | 10084 ft | 306 kts | 156° |
| 2026-04-28 19:43 | 48.48556 | 17.43324 | 9711 ft | 303 kts | 163° |
| 2026-04-28 19:43 | 48.46509 | 17.44089 | 9374 ft | 299 kts | 172° |
| 2026-04-28 19:44 | 48.44480 | 17.44479 | 9062 ft | 295 kts | 174° |
| 2026-04-28 19:44 | 48.42435 | 17.44794 | 8699 ft | 293 kts | 175° |
| 2026-04-28 19:44 | 48.40435 | 17.45086 | 8321 ft | 291 kts | 175° |
| 2026-04-28 19:44 | 48.38423 | 17.45371 | 7952 ft | 289 kts | 175° |
| 2026-04-28 19:45 | 48.36433 | 17.45645 | 7578 ft | 287 kts | 175° |
| 2026-04-28 19:45 | 48.34446 | 17.45910 | 7214 ft | 285 kts | 175° |
| 2026-04-28 19:45 | 48.32486 | 17.46164 | 6826 ft | 284 kts | 175° |
| 2026-04-28 19:45 | 48.30529 | 17.46410 | 6472 ft | 282 kts | 175° |
| 2026-04-28 19:46 | 48.28572 | 17.46645 | 6102 ft | 279 kts | 175° |
| 2026-04-28 19:46 | 48.26645 | 17.46869 | 5733 ft | 278 kts | 175° |
| 2026-04-28 19:46 | 48.24721 | 17.47084 | 5366 ft | 277 kts | 175° |
| 2026-04-28 19:46 | 48.22807 | 17.47290 | 5014 ft | 275 kts | 175° |
| 2026-04-28 19:47 | 48.20921 | 17.47485 | 4663 ft | 273 kts | 175° |
| 2026-04-28 19:47 | 48.19031 | 17.47673 | 4289 ft | 273 kts | 175° |
| 2026-04-28 19:47 | 48.17143 | 17.47848 | 3994 ft | 268 kts | 175° |
| 2026-04-28 19:47 | 48.15331 | 17.47642 | 3798 ft | 260 kts | 196° |
| 2026-04-28 19:48 | 48.13731 | 17.46486 | 3629 ft | 252 kts | 212° |
| 2026-04-28 19:48 | 48.12340 | 17.44969 | 3465 ft | 243 kts | 221° |
| 2026-04-28 19:48 | 48.11123 | 17.43251 | 3328 ft | 234 kts | 224° |
| 2026-04-28 19:48 | 48.09998 | 17.41571 | 3224 ft | 223 kts | 225° |
| 2026-04-28 19:49 | 48.08943 | 17.39986 | 3105 ft | 210 kts | 225° |
| 2026-04-28 19:49 | 48.07952 | 17.38451 | 2838 ft | 203 kts | 232° |
| 2026-04-28 19:49 | 48.07503 | 17.36584 | 2641 ft | 186 kts | 273° |
| 2026-04-28 19:49 | 48.07911 | 17.34906 | 2494 ft | 162 kts | 313° |
| 2026-04-28 19:50 | 48.09482 | 17.32694 | 2179 ft | 152 kts | 324° |
| 2026-04-28 19:50 | 48.10272 | 17.31654 | 1987 ft | 150 kts | 322° |
| 2026-04-28 19:50 | 48.11015 | 17.30572 | 1780 ft | 149 kts | 321° |
| 2026-04-28 19:51 | 48.11737 | 17.29456 | 1578 ft | 150 kts | 319° |
| 2026-04-28 19:51 | 48.12450 | 17.28338 | 1380 ft | 149 kts | 319° |
| 2026-04-28 19:51 | 48.13169 | 17.27218 | 1184 ft | 148 kts | 318° |
| 2026-04-28 19:51 | 48.13881 | 17.26113 | 989 ft | 147 kts | 317° |
| 2026-04-28 19:52 | 48.14585 | 17.25022 | 794 ft | 146 kts | 317° |
| 2026-04-28 19:52 | 48.15296 | 17.23926 | 606 ft | 145 kts | 316° |
| 2026-04-28 19:52 | 48.15990 | 17.22848 | 448 ft | 143 kts | 316° |
| 2026-04-28 19:52 | 48.16633 | 17.21854 | 440 ft | 112 kts | 313° |
| 2026-04-28 19:53 | 48.17022 | 17.21253 | 439 ft | 43 kts | 313° |
| 2026-04-28 19:53 | 48.17131 | 17.21080 | 440 ft | 8 kts | 308° |
| 2026-04-28 19:53 | 48.17120 | 17.21001 | 440 ft | 9 kts | 224° |
| 2026-04-28 19:53 | 48.17072 | 17.20931 | 440 ft | 10 kts | 224° |
| 2026-04-28 19:54 | 48.17040 | 17.20873 | 440 ft | 7 kts | 260° |
| 2026-04-28 19:54 | 48.17068 | 17.20807 | 440 ft | 8 kts | 314° |
| 2026-04-28 19:54 | 48.17109 | 17.20742 | 440 ft | 9 kts | 314° |
| 2026-04-28 19:54 | 48.17155 | 17.20672 | 440 ft | 9 kts | 311° |
| 2026-04-28 19:55 | 48.17163 | 17.20574 | 440 ft | 10 kts | 242° |
| 2026-04-28 19:55 | 48.17111 | 17.20493 | 441 ft | 11 kts | 224° |
| 2026-04-28 19:55 | 48.17053 | 17.20410 | 441 ft | 11 kts | 224° |
| 2026-04-28 19:55 | 48.16994 | 17.20325 | 441 ft | 12 kts | 224° |
| 2026-04-28 19:56 | 48.16934 | 17.20239 | 441 ft | 7 kts | 224° |
| 2026-04-28 19:56 | 48.16928 | 17.20172 | 442 ft | 7 kts | 308° |
| 2026-04-28 19:56 | 48.16948 | 17.20144 | 442 ft | 0 kts | 316° |